Latest Weather Observations for Maatsuyker Island

IDT60801

Issued at 5:31 pm EDT Sunday 21 December 2014 (issued every 30 minutes, with the page automatically refreshed every 10 minutes)

About weather observations | Map of weather stations | Latest weather observations for TAS | Other Formats
Station Details ID: 094041 Name: MAATSUYKER ISLAND LIGHTHOUSE Lat: -43.66 Lon: 146.27 Height: 146.5 m
Data from the previous 72 hours. | See also: Recent months at Maatsuyker Island
Date/Time
EDT
Temp
°C
App
Temp
°C
Dew
Point
Rel
Hum
%
Delta-T
°C
Wind Press
QNH
hPa
Press
MSL
hPa
Rain
since 9 am
mm
Dir
 
Spd
km/h
Gust
km/h
Spd
kts
Gust
kts
21/05:30pm 13.4 4.1 12.9 97 0.3 NNW 54 65 29 35 1010.0 - 0.2
21/05:00pm 13.9 4.0 12.3 90 0.9 NNW 56 69 30 37 1010.0 - 0.0
21/04:35pm 14.2 5.3 12.0 87 1.2 NNW 50 69 27 37 1010.3 - 0.0
21/04:30pm 14.0 5.6 12.2 89 1.0 NNW 48 57 26 31 1010.5 - 0.0
21/04:00pm 14.2 5.6 11.6 84 1.4 NNW 48 59 26 32 1010.3 - 0.0
21/03:41pm 14.0 6.8 12.0 88 1.1 NNW 41 59 22 32 1010.7 - 0.0
21/03:30pm 13.8 6.1 12.0 89 1.0 NNW 44 57 24 31 1010.7 - 0.0
21/03:26pm 13.9 5.3 11.7 86 1.2 NNW 48 67 26 36 1010.5 - 0.0
21/03:00pm 14.0 6.0 11.0 82 1.6 NNW 44 61 24 33 1010.4 1010.4 0.0
21/02:36pm 14.0 3.6 10.6 80 1.8 NNW 56 74 30 40 1010.6 - 0.0
21/02:30pm 13.9 2.5 10.5 80 1.8 NNW 61 74 33 40 1010.3 - 0.0
21/02:00pm 14.2 1.3 10.4 78 2.0 NNW 69 82 37 44 1009.3 - 0.0
21/01:54pm 14.2 1.1 10.6 79 1.9 NW 70 78 38 42 1009.4 - 0.0
21/01:30pm 14.9 5.2 10.6 75 2.3 NW 52 65 28 35 1010.5 - 0.0
21/01:00pm 14.7 6.5 10.3 75 2.3 NW 44 52 24 28 1010.9 - 0.0
21/12:30pm 14.3 5.9 9.7 74 2.4 NW 44 54 24 29 1010.7 - 0.0
21/12:00pm 14.7 6.6 10.1 74 2.4 NW 43 50 23 27 1010.9 1010.9 0.0
21/11:30am 14.8 9.4 9.4 70 2.8 NNW 28 33 15 18 1011.4 - 0.0
21/11:00am 14.5 10.1 8.8 68 2.9 NNW 22 30 12 16 1011.5 - 0.0
21/10:30am 14.4 9.1 8.5 67 3.0 NNW 26 33 14 18 1011.9 - 0.0
21/10:00am 13.7 8.3 7.9 68 2.9 NNW 26 32 14 17 1012.4 - 0.0
21/09:30am 13.7 9.2 8.6 71 2.6 NNW 22 30 12 16 1012.8 - 0.0
21/09:00am 13.0 8.9 8.0 71 2.5 N 19 26 10 14 1013.3 1013.3 1.0
21/08:30am 12.2 7.5 7.7 74 2.2 N 22 32 12 17 1013.4 - 1.0
21/08:00am 11.6 6.8 7.5 76 2.0 N 22 30 12 16 1013.3 - 1.0
21/07:30am 11.2 6.4 7.5 78 1.8 N 22 30 12 16 1013.4 - 1.0
21/07:00am 11.0 7.4 8.2 83 1.4 N 17 26 9 14 1013.5 - 1.0
21/06:30am 10.3 6.9 7.6 83 1.3 N 15 22 8 12 1013.5 - 1.0
21/06:00am 10.1 6.4 8.0 87 1.0 N 17 24 9 13 1013.2 1013.2 1.0
21/05:30am 10.2 6.9 8.2 87 1.0 N 15 24 8 13 1013.7 - 1.0
21/05:00am 10.8 6.5 7.7 81 1.5 NNW 20 26 11 14 1014.8 - 1.0
21/04:30am 10.4 6.9 8.6 89 0.9 NNW 17 22 9 12 1014.1 - 1.0
21/04:00am 10.6 7.3 8.2 85 1.2 NNW 15 20 8 11 1014.0 - 1.0
21/03:30am 10.3 6.8 8.7 90 0.8 N 17 20 9 11 1013.5 - 1.0
21/03:00am 10.4 7.7 8.8 90 0.8 NNW 13 19 7 10 1013.7 1013.7 1.0
21/02:30am 10.9 7.7 8.5 85 1.2 NNW 15 20 8 11 1013.9 - 1.0
21/02:00am 10.6 7.4 8.6 87 1.0 N 15 20 8 11 1014.2 - 1.0
21/01:30am 10.7 7.1 8.5 86 1.1 N 17 22 9 12 1014.3 - 1.0
21/01:00am 10.7 7.6 8.9 89 0.9 N 15 20 8 11 1014.9 - 1.0
21/12:30am 10.8 7.7 9.0 89 0.9 N 15 19 8 10 1015.3 - 1.0
21/12:00am 11.1 8.8 8.9 86 1.1 NNW 11 19 6 10 1015.3 1015.4 1.0
 
Date/Time
EDT
Temp
°C
App
Temp
°C
Dew
Point
Rel
Hum
%
Delta-T
°C
Wind Press
QNH
hPa
Press
MSL
hPa
Rain
since 9 am
mm
Dir
 
Spd
km/h
Gust
km/h
Spd
kts
Gust
kts
20/11:30pm 10.6 8.1 8.2 85 1.2 NNW 11 13 6 7 1015.5 - 1.0
20/11:00pm 10.9 8.1 8.5 85 1.2 WNW 13 15 7 8 1015.6 - 1.0
20/10:30pm 10.9 8.5 8.7 86 1.1 WNW 11 13 6 7 1015.8 - 1.0
20/10:00pm 11.0 7.8 8.6 85 1.2 WNW 15 17 8 9 1015.9 - 1.0
20/09:30pm 11.2 7.6 8.2 82 1.5 NW 17 20 9 11 1015.7 - 1.0
20/09:00pm 11.3 7.1 8.3 82 1.5 WNW 20 24 11 13 1015.6 1015.7 1.0
20/08:30pm 11.5 6.7 8.7 83 1.4 WNW 24 28 13 15 1015.7 - 1.0
20/08:00pm 11.7 7.7 9.1 84 1.3 NW 20 24 11 13 1015.7 - 1.0
20/07:30pm 11.3 8.6 8.9 85 1.2 NNW 13 17 7 9 1015.7 - 1.0
20/07:00pm 10.6 8.0 9.2 91 0.7 NW 13 15 7 8 1015.5 - 1.0
20/06:30pm 10.5 6.1 9.1 91 0.7 NW 22 26 12 14 1015.3 - 0.8
20/06:00pm 10.6 6.5 8.6 87 1.0 WNW 20 24 11 13 1015.1 1015.2 0.8
20/05:30pm 11.2 7.7 8.6 84 1.3 W 17 30 9 16 1015.0 - 0.6
20/05:00pm 11.7 7.8 9.3 85 1.2 WNW 20 30 11 16 1014.9 - 0.6
20/04:30pm 12.7 6.2 8.9 78 1.9 NW 33 39 18 21 1014.6 - 0.2
20/04:00pm 13.1 6.4 8.3 72 2.4 NW 33 37 18 20 1014.5 - 0.2
20/03:30pm 13.3 6.8 8.8 74 2.3 NW 33 39 18 21 1014.5 - 0.2
20/03:00pm 12.8 8.4 10.3 85 1.3 W 24 43 13 23 1014.6 1014.6 0.2
20/02:30pm 14.3 8.3 10.1 76 2.2 WNW 32 35 17 19 1014.3 - 0.2
20/02:00pm 13.3 8.9 10.4 82 1.5 W 24 33 13 18 1014.3 - 0.2
20/01:30pm 12.4 5.9 10.3 87 1.1 WNW 35 48 19 26 1014.1 - 0.2
20/01:00pm 14.3 6.4 10.7 79 1.9 NW 43 48 23 26 1013.6 - 0.2
20/12:30pm 13.9 6.7 10.7 81 1.7 WNW 39 44 21 24 1013.5 - 0.2
20/12:00pm 13.3 6.7 11.4 88 1.0 WNW 37 41 20 22 1013.3 1013.3 0.2
20/11:30am 13.8 6.7 10.8 82 1.6 WNW 39 46 21 25 1013.0 - 0.0
20/11:00am 13.1 5.0 10.6 85 1.3 WNW 44 54 24 29 1012.9 - 0.0
20/10:30am 12.9 4.1 10.8 87 1.1 WNW 48 54 26 29 1012.4 - 0.0
20/10:00am 12.8 3.8 11.5 92 0.7 NW 50 57 27 31 1012.0 - 0.0
20/09:30am 12.7 3.8 11.8 94 0.5 NW 50 56 27 30 1012.0 - 0.0
20/09:00am 12.5 4.7 11.8 95 0.4 WNW 44 57 24 31 1011.6 1011.6 4.8
20/08:30am 12.3 3.3 11.5 95 0.4 NW 50 57 27 31 1011.2 - 4.8
20/08:00am 12.3 2.8 11.2 93 0.6 NW 52 59 28 32 1010.6 - 4.8
20/07:30am 12.2 1.9 11.1 93 0.6 NW 56 61 30 33 1010.2 - 4.8
20/07:00am 12.1 1.8 11.2 94 0.5 NW 56 63 30 34 1009.8 - 4.8
20/06:30am 12.1 1.7 11.3 95 0.4 NW 57 67 31 36 1009.4 - 4.8
20/06:00am 12.1 3.5 11.5 96 0.3 WNW 48 61 26 33 1009.3 1009.3 4.8
20/05:30am 12.3 2.2 11.7 96 0.3 NW 56 61 30 33 1008.8 - 4.8
20/05:00am 12.4 1.1 12.2 99 0.1 NW 63 72 34 39 1008.2 - 4.8
20/04:30am 12.5 0.9 12.3 99 0.1 NW 65 74 35 40 1007.9 - 4.8
20/04:00am 12.4 0.7 12.2 99 0.1 NNW 65 74 35 40 1007.4 - 4.6
20/03:30am 12.3 1.7 12.1 99 0.1 NNW 59 72 32 39 1007.8 - 4.4
20/03:13am 12.2 2.2 12.0 99 0.1 NNW 56 74 30 40 1008.0 - 4.4
20/03:00am 12.1 2.1 11.9 99 0.1 NNW 56 65 30 35 1008.1 1008.1 4.0
20/02:54am 11.9 4.1 11.7 99 0.1 NNW 44 63 24 34 1008.3 - 4.0
20/02:30am 11.1 4.4 10.9 99 0.1 NNW 37 46 20 25 1009.0 - 3.8
20/02:00am 11.0 4.6 10.6 97 0.2 NNW 35 46 19 25 1009.5 - 3.0
20/01:30am 10.8 3.9 10.4 97 0.2 NNW 37 50 20 27 1010.0 - 2.2
20/01:00am 10.7 3.7 10.1 96 0.3 NNW 37 46 20 25 1010.2 - 1.6
20/12:30am 10.8 3.4 10.0 95 0.4 NNW 39 52 21 28 1010.6 - 1.2
20/12:00am 10.7 3.3 9.9 95 0.4 NNW 39 50 21 27 1011.0 1011.0 1.2
 
Date/Time
EDT
Temp
°C
App
Temp
°C
Dew
Point
Rel
Hum
%
Delta-T
°C
Wind Press
QNH
hPa
Press
MSL
hPa
Rain
since 9 am
mm
Dir
 
Spd
km/h
Gust
km/h
Spd
kts
Gust
kts
19/11:30pm 10.8 3.0 9.6 92 0.6 NNW 41 52 22 28 1011.2 - 1.0
19/11:00pm 10.6 3.5 9.4 92 0.6 NNW 37 46 20 25 1011.6 - 1.0
19/10:30pm 10.7 3.2 9.3 91 0.7 NNW 39 54 21 29 1011.9 - 0.8
19/10:00pm 10.5 3.2 8.9 90 0.8 NNW 37 46 20 25 1012.1 - 0.8
19/09:30pm 11.4 4.2 7.7 78 1.8 NNW 35 46 19 25 1012.2 - 0.8
19/09:14pm 11.9 2.4 6.5 69 2.6 NNW 46 65 25 35 1012.1 - 0.8
19/09:00pm 11.9 2.4 6.9 71 2.4 NNW 46 63 25 34 1012.1 1012.1 0.8
19/08:31pm 11.9 2.9 7.2 73 2.3 NNW 44 63 24 34 1012.1 - 0.8
19/08:30pm 11.9 2.5 7.2 73 2.3 NNW 46 63 25 34 1012.1 - 0.8
19/08:24pm 11.9 3.0 6.7 70 2.5 NNW 43 63 23 34 1012.0 - 0.8
19/08:00pm 11.9 2.7 6.5 69 2.6 NNW 44 57 24 31 1012.0 - 0.8
19/07:30pm 11.8 0.8 4.9 62 3.2 NNW 52 65 28 35 1011.9 - 0.8
19/07:00pm 11.8 1.6 6.8 71 2.4 NNW 50 59 27 32 1011.8 - 0.8
19/06:30pm 11.0 0.0 6.6 74 2.1 NNW 54 67 29 36 1011.7 - 0.8
19/06:00pm 11.0 -0.4 7.5 79 1.7 NNW 57 74 31 40 1011.5 1011.5 0.8
19/05:50pm 11.0 -0.3 7.3 78 1.8 NNW 56 74 30 40 1011.4 - 0.8
19/05:30pm 10.0 -0.2 8.4 90 0.8 NW 52 59 28 32 1012.0 - 0.8
19/05:00pm 11.4 1.0 6.1 70 2.5 NNW 50 59 27 32 1012.0 - 0.2
19/04:30pm 12.0 0.1 5.1 62 3.2 NW 57 65 31 35 1012.1 - 0.2
19/04:00pm 12.1 -1.5 4.2 58 3.6 NW 65 72 35 39 1011.7 - 0.2
19/03:30pm 12.4 -0.4 4.8 60 3.5 NW 61 67 33 36 1011.9 - 0.2
19/03:00pm 12.2 1.5 4.8 60 3.4 NW 50 65 27 35 1011.8 1011.8 0.2
19/02:30pm 12.8 0.3 4.3 56 3.9 NW 59 65 32 35 1012.1 - 0.2
19/02:00pm 12.4 -0.1 4.0 56 3.8 NW 59 67 32 36 1011.8 - 0.2
19/01:30pm 11.8 -0.6 4.9 62 3.2 NW 59 67 32 36 1011.8 - 0.2
19/01:00pm 12.3 0.1 3.9 56 3.8 NW 57 65 31 35 1012.0 - 0.2
19/12:30pm 12.0 -0.2 3.8 57 3.7 NW 57 63 31 34 1011.8 - 0.2
19/12:00pm 11.9 0.5 5.0 62 3.2 NW 54 63 29 34 1011.9 1011.9 0.2
19/11:30am 11.8 0.3 4.6 61 3.3 NW 54 61 29 33 1012.1 - 0.2
19/11:00am 11.7 0.0 3.1 55 3.8 NW 54 57 29 31 1012.0 - 0.2
19/10:30am 11.6 0.5 4.3 61 3.3 NW 52 57 28 31 1011.9 - 0.2
19/10:00am 10.8 0.5 4.6 65 2.8 NW 48 54 26 29 1011.9 - 0.2
19/09:34am 9.2 0.7 3.2 66 2.6 NW 37 70 20 38 1012.2 - 0.0
19/09:30am 8.9 -4.0 4.2 72 2.1 NW 61 70 33 38 1011.7 - 0.0
19/09:23am 10.2 -2.0 5.7 73 2.1 WNW 59 65 32 35 1011.7 - 0.0
19/09:21am 10.6 3.4 5.9 73 2.2 NW 33 65 18 35 1011.9 - 0.0
19/09:00am 10.1 5.8 7.2 82 1.4 WNW 19 28 10 15 1012.1 1012.1 4.0
19/08:30am 9.9 3.6 5.8 75 1.9 W 28 56 15 30 1011.7 - 3.6
19/08:00am 9.9 4.1 4.3 68 2.5 W 24 30 13 16 1011.5 - 3.6
19/07:30am 9.9 3.8 3.0 62 3.0 W 24 33 13 18 1011.1 - 3.6
19/07:09am 9.8 3.3 4.7 70 2.3 WSW 28 50 15 27 1010.9 - 3.6
19/07:00am 10.1 1.6 3.3 62 3.0 WNW 37 44 20 24 1010.7 - 3.6
19/06:30am 9.9 2.2 2.2 59 3.3 WNW 32 39 17 21 1010.3 - 3.6
19/06:00am 9.7 3.9 4.3 69 2.4 WNW 24 37 13 20 1010.0 1010.0 3.6
19/05:30am 9.7 3.5 4.1 68 2.5 W 26 33 14 18 1009.7 - 3.6
19/05:00am 9.4 3.7 5.0 74 2.0 WNW 24 30 13 16 1009.3 - 3.6
19/04:30am 9.1 3.1 5.1 76 1.8 WSW 26 37 14 20 1009.0 - 3.6
19/04:00am 9.4 1.5 4.2 70 2.3 W 35 43 19 23 1008.5 - 3.6
19/03:30am 9.2 3.1 6.4 83 1.3 W 28 37 15 20 1008.4 - 3.6
19/03:09am 9.8 2.3 6.2 78 1.7 W 35 57 19 31 1008.5 - 3.4
19/03:00am 9.8 3.0 5.0 72 2.2 W 30 39 16 21 1008.2 1008.2 3.4
19/02:30am 10.2 3.1 6.4 77 1.8 W 33 41 18 22 1008.2 - 3.4
19/02:00am 10.0 2.2 5.0 71 2.3 WNW 35 44 19 24 1007.9 - 3.4
19/01:30am 10.0 1.5 5.0 71 2.3 W 39 46 21 25 1007.6 - 3.4
19/01:00am 10.1 2.9 6.0 76 1.9 W 33 43 18 23 1007.5 - 3.4
19/12:30am 9.9 2.0 6.3 78 1.7 W 37 46 20 25 1007.2 - 3.4
19/12:00am 9.7 1.6 7.0 83 1.3 W 39 48 21 26 1006.9 1006.9 3.2
 
Date/Time
EDT
Temp
°C
App
Temp
°C
Dew
Point
Rel
Hum
%
Delta-T
°C
Wind Press
QNH
hPa
Press
MSL
hPa
Rain
since 9 am
mm
Dir
 
Spd
km/h
Gust
km/h
Spd
kts
Gust
kts
18/11:30pm 10.3 1.7 6.7 78 1.7 WNW 41 48 22 26 1006.6 - 3.2
18/11:00pm 10.5 1.7 8.1 85 1.2 NW 44 52 24 28 1006.1 - 3.2
18/10:30pm 10.6 0.9 7.7 82 1.4 WNW 48 56 26 30 1006.0 - 3.2
18/10:00pm 10.2 2.3 7.7 84 1.2 WNW 39 57 21 31 1006.1 - 3.2
18/09:30pm 10.3 1.1 7.8 84 1.2 NW 46 57 25 31 1005.4 - 2.8
18/09:00pm 10.9 -1.2 7.6 80 1.6 NW 61 69 33 37 1004.6 1004.6 2.4
18/08:30pm 11.6 -2.0 6.4 70 2.5 NW 67 74 36 40 1003.8 - 2.2
18/08:00pm 11.9 -2.2 6.7 70 2.5 NW 70 78 38 42 1003.1 - 2.2
18/07:30pm 12.0 -1.8 6.8 70 2.5 NW 69 78 37 42 1002.3 - 2.2
18/07:00pm 11.9 -1.4 7.6 75 2.1 NW 67 74 36 40 1002.0 - 2.2
18/06:30pm 11.9 -2.0 7.4 74 2.2 NW 70 78 38 42 1001.3 - 2.2
18/06:00pm 12.2 -2.1 7.5 73 2.3 NW 72 80 39 43 1000.2 1000.2 2.2

Other Formats:

Comma delimited format used in spreadsheet applications
http://www.bom.gov.au/fwo/IDT60801/IDT60801.94962.axf

JavaScript Object Notation format (JSON) in row-major order
http://www.bom.gov.au/fwo/IDT60801/IDT60801.94962.json